Main page
METAR-TAF:

METAR-TAF

Airports :

St. Moritz, Switzerland

Samedan Airport

latitude: 46-32-03N, longitude: 9-53-03E, elevation: 1707 m

Current weather observation

The report was made 19 minutes ago, at 21:20 UTC
Wind 2 kt from variable directions
Temperature -12°C
Humidity 72%
Pressure 1020 hPa
Visibility 10 km or more
Broken clouds
light snow

METAR: LSZS 172120Z AUTO VRB02KT 9999 -SN BKN/// M12/M16 Q1020

Time: 22:39 (21:39 UTC)

Forecast

The report was made 7 hours and 14 minutes ago, at 14:25 UTC
Forecast valid from 17 at 15 UTC to 17 at 24 UTC
Wind 5 kt from the Northeast
Visibility 10 km or more
Few clouds at a height of 3800 ft
Scattered clouds at a height of 4500 ft
Probability 40% :
Temporary
from 17 at 15 UTC to 17 at 20 UTC
Visibility: 3000 m
Broken clouds at a height of 1200 ft
light snow showers

TAF: LSZS 171425Z 1715/1724 04005KT 9999 FEW038 SCT045 TXM07/1715Z PROB40 TEMPO 1715/1720 3000 -SHSN BKN012

Weather observations and forecasts of more than 4000 airports (METAR and TAF reports).

The available stations are represented by yellow and red dots on the map.

Hover mouse over dot to see the name of the station.

Then click to see weather observations and forecasts.

To change the map : click on the green buttons with a black cross to zoom in, on the green button with a dash to zoom out, or on the green arrows for adjacent maps.


METAR-TAF: